createdAt,value
2018-09-30T00:00:16.782Z,15.49
2018-09-30T00:00:47.908Z,15.50
2018-09-30T00:01:19.043Z,15.48
2018-09-30T00:01:50.194Z,15.48
2018-09-30T00:02:21.368Z,15.47
2018-09-30T00:02:52.492Z,15.46
2018-09-30T00:03:23.591Z,15.46
2018-09-30T00:03:54.705Z,15.45
2018-09-30T00:04:25.804Z,15.45
2018-09-30T00:04:56.914Z,15.45
2018-09-30T00:05:28.045Z,15.44
2018-09-30T00:05:59.166Z,15.44
2018-09-30T00:06:30.317Z,15.44
2018-09-30T00:07:01.432Z,15.42
2018-09-30T00:07:32.605Z,15.42
2018-09-30T00:08:03.731Z,15.40
2018-09-30T00:08:34.834Z,15.37
2018-09-30T00:09:05.952Z,15.36
2018-09-30T00:09:37.101Z,15.34
2018-09-30T00:10:08.243Z,15.37
2018-09-30T00:10:39.376Z,15.37
2018-09-30T00:11:10.526Z,15.38
2018-09-30T00:11:41.624Z,15.38
2018-09-30T00:12:12.737Z,15.38
2018-09-30T00:12:43.874Z,15.38
2018-09-30T00:13:14.983Z,15.38
2018-09-30T00:13:46.109Z,15.40
2018-09-30T00:14:17.270Z,15.43
2018-09-30T00:14:48.375Z,15.44
2018-09-30T00:15:19.481Z,15.46
2018-09-30T00:15:50.588Z,15.47
2018-09-30T00:16:21.695Z,15.46
2018-09-30T00:16:52.830Z,15.46
2018-09-30T00:17:23.993Z,15.45
2018-09-30T00:17:55.147Z,15.44
2018-09-30T00:18:26.295Z,15.43
2018-09-30T00:18:57.415Z,15.44
2018-09-30T00:19:28.576Z,15.44
2018-09-30T00:19:59.659Z,15.43
2018-09-30T00:20:30.750Z,15.43
2018-09-30T00:21:01.866Z,15.47
2018-09-30T00:21:32.984Z,15.50
2018-09-30T00:22:04.096Z,15.53
2018-09-30T00:22:35.230Z,15.55
2018-09-30T00:23:06.402Z,15.56
2018-09-30T00:23:37.504Z,15.57
2018-09-30T00:24:08.618Z,15.57
2018-09-30T00:24:39.724Z,15.57
2018-09-30T00:25:10.826Z,15.55
2018-09-30T00:25:41.933Z,15.52
2018-09-30T00:26:13.080Z,15.48
2018-09-30T00:26:44.197Z,15.47
2018-09-30T00:27:15.312Z,15.47
2018-09-30T00:27:46.474Z,15.46
2018-09-30T00:28:17.622Z,15.48
2018-09-30T00:28:48.759Z,15.52
2018-09-30T00:29:19.861Z,15.54
2018-09-30T00:29:50.978Z,15.54
2018-09-30T00:30:22.077Z,15.54
2018-09-30T00:30:53.188Z,15.52
2018-09-30T00:31:24.299Z,15.48
2018-09-30T00:31:55.439Z,15.44
2018-09-30T00:32:26.549Z,15.45
2018-09-30T00:32:57.651Z,15.42
2018-09-30T00:33:28.798Z,15.42
2018-09-30T00:33:59.902Z,15.42
2018-09-30T00:34:31.012Z,15.43
2018-09-30T00:35:02.143Z,15.44
2018-09-30T00:35:33.244Z,15.44
2018-09-30T00:36:04.400Z,15.46
2018-09-30T00:36:35.518Z,15.46
2018-09-30T00:37:06.699Z,15.46
2018-09-30T00:37:37.832Z,15.45
2018-09-30T00:38:08.929Z,15.45
2018-09-30T00:38:40.035Z,15.45
2018-09-30T00:39:11.140Z,15.45
2018-09-30T00:39:42.242Z,15.45
2018-09-30T00:40:13.338Z,15.47
2018-09-30T00:40:44.463Z,15.45
2018-09-30T00:41:15.562Z,15.47
2018-09-30T00:41:46.678Z,15.48
2018-09-30T00:42:17.860Z,15.48
2018-09-30T00:42:49.012Z,15.49
2018-09-30T00:43:20.168Z,15.50
2018-09-30T00:43:51.300Z,15.53
2018-09-30T00:44:22.397Z,15.49
2018-09-30T00:44:53.504Z,15.48
2018-09-30T00:45:24.606Z,15.48
2018-09-30T00:45:55.743Z,15.50
2018-09-30T00:46:26.871Z,15.48
2018-09-30T00:46:58.017Z,15.49
2018-09-30T00:47:29.163Z,15.49
2018-09-30T00:48:00.302Z,15.49
2018-09-30T00:48:31.439Z,15.51
2018-09-30T00:49:02.594Z,15.50
2018-09-30T00:49:33.716Z,15.49
2018-09-30T00:50:04.818Z,15.48
2018-09-30T00:50:35.910Z,15.49
2018-09-30T00:51:07.017Z,15.51
2018-09-30T00:51:38.125Z,15.54
2018-09-30T00:52:09.238Z,15.56
2018-09-30T00:52:40.354Z,15.57
2018-09-30T00:53:11.455Z,15.59
2018-09-30T00:53:42.569Z,15.61
2018-09-30T00:54:13.710Z,15.62
2018-09-30T00:54:44.817Z,15.60
2018-09-30T00:55:15.957Z,15.63
2018-09-30T00:55:47.117Z,15.63
2018-09-30T00:56:18.287Z,15.64
2018-09-30T00:56:49.389Z,15.64
2018-09-30T00:57:20.528Z,15.65
2018-09-30T00:57:51.629Z,15.64
2018-09-30T00:58:22.753Z,15.62
2018-09-30T00:58:53.857Z,15.62
2018-09-30T00:59:24.952Z,15.65
2018-09-30T00:59:56.116Z,15.66
2018-09-30T01:00:27.267Z,15.69
2018-09-30T01:00:58.398Z,15.69
2018-09-30T01:01:29.514Z,15.71
2018-09-30T01:02:00.622Z,15.71
2018-09-30T01:02:31.751Z,15.70
2018-09-30T01:03:02.887Z,15.70
2018-09-30T01:03:34.032Z,15.70
2018-09-30T01:04:05.142Z,15.71
2018-09-30T01:04:36.294Z,15.73
2018-09-30T01:05:07.433Z,15.74
2018-09-30T01:05:38.528Z,15.75
2018-09-30T01:06:09.658Z,15.75
2018-09-30T01:06:40.784Z,15.76
2018-09-30T01:07:11.890Z,15.77
2018-09-30T01:07:43.042Z,15.73
2018-09-30T01:08:14.138Z,15.72
2018-09-30T01:08:45.268Z,15.73
2018-09-30T01:09:16.379Z,15.74
2018-09-30T01:09:47.513Z,15.75
2018-09-30T01:10:18.670Z,15.75
2018-09-30T01:10:49.774Z,15.76
2018-09-30T01:11:20.941Z,15.78
2018-09-30T01:11:52.049Z,15.79
2018-09-30T01:12:23.158Z,15.80
2018-09-30T01:12:54.291Z,15.80
2018-09-30T01:13:25.400Z,15.82
2018-09-30T01:13:56.502Z,15.83
2018-09-30T01:14:27.603Z,15.84
2018-09-30T01:14:58.732Z,15.86
2018-09-30T01:15:29.850Z,15.87
2018-09-30T01:16:00.966Z,15.87
2018-09-30T01:16:32.166Z,15.86
2018-09-30T01:17:03.314Z,15.85
2018-09-30T01:17:34.421Z,15.86
2018-09-30T01:18:05.516Z,15.85
2018-09-30T01:18:36.648Z,15.85
2018-09-30T01:19:07.763Z,15.84
2018-09-30T01:19:38.879Z,15.84
2018-09-30T01:20:09.999Z,15.84
2018-09-30T01:20:41.108Z,15.83
2018-09-30T01:21:12.219Z,15.83
2018-09-30T01:21:43.379Z,15.83
2018-09-30T01:22:14.502Z,15.83
2018-09-30T01:22:45.608Z,15.83
2018-09-30T01:23:16.740Z,15.82
2018-09-30T01:23:47.881Z,15.81
2018-09-30T01:24:19.004Z,15.79
2018-09-30T01:24:50.110Z,15.77
2018-09-30T01:25:21.206Z,15.74
2018-09-30T01:25:52.338Z,15.74
2018-09-30T01:26:23.446Z,15.73
2018-09-30T01:26:54.619Z,15.74
2018-09-30T01:27:25.747Z,15.72
2018-09-30T01:27:56.845Z,15.72
2018-09-30T01:28:27.953Z,15.72
2018-09-30T01:28:59.053Z,15.72
2018-09-30T01:29:30.170Z,15.72
2018-09-30T01:30:01.301Z,15.72
2018-09-30T01:30:32.412Z,15.70
2018-09-30T01:31:03.522Z,15.67
2018-09-30T01:31:34.630Z,15.61
2018-09-30T01:32:05.826Z,15.57
2018-09-30T01:32:36.955Z,15.57
2018-09-30T01:33:08.055Z,15.55
2018-09-30T01:33:39.153Z,15.50
2018-09-30T01:34:10.293Z,15.45
2018-09-30T01:34:41.415Z,15.44
2018-09-30T01:35:12.544Z,15.41
2018-09-30T01:35:43.647Z,15.34
2018-09-30T01:36:14.779Z,15.40
2018-09-30T01:36:45.874Z,15.42
2018-09-30T01:37:17.041Z,15.46
2018-09-30T01:37:48.155Z,15.48
2018-09-30T01:38:19.338Z,15.49
2018-09-30T01:38:50.424Z,15.51
2018-09-30T01:39:21.537Z,15.50
2018-09-30T01:39:52.711Z,15.51
2018-09-30T01:40:23.817Z,15.52
2018-09-30T01:40:54.934Z,15.52
2018-09-30T01:41:26.053Z,15.48
2018-09-30T01:41:57.166Z,15.46
2018-09-30T01:42:28.323Z,15.43
2018-09-30T01:42:59.437Z,15.42
2018-09-30T01:43:30.572Z,15.42
2018-09-30T01:44:01.677Z,15.42
2018-09-30T01:44:32.777Z,15.39
2018-09-30T01:45:03.879Z,15.39
2018-09-30T01:45:34.977Z,15.39
2018-09-30T01:46:06.131Z,15.39
2018-09-30T01:46:37.242Z,15.35
2018-09-30T01:47:08.351Z,15.35
2018-09-30T01:48:16.869Z,15.27
2018-09-30T01:48:47.988Z,15.25
2018-09-30T01:49:19.085Z,15.25
2018-09-30T01:49:50.195Z,15.26
2018-09-30T01:50:21.305Z,15.28
2018-09-30T01:50:52.444Z,15.30
2018-09-30T01:51:23.589Z,15.31
2018-09-30T01:51:54.690Z,15.28
2018-09-30T01:52:25.862Z,15.27
2018-09-30T01:52:57.035Z,15.23
2018-09-30T01:53:28.149Z,15.26
2018-09-30T01:53:59.289Z,15.26
2018-09-30T01:54:30.420Z,15.25
2018-09-30T01:55:01.526Z,15.24
2018-09-30T01:55:32.658Z,15.24
2018-09-30T01:56:03.766Z,15.22
2018-09-30T01:56:34.884Z,15.19
2018-09-30T01:57:05.988Z,15.19
2018-09-30T01:57:37.097Z,15.22
2018-09-30T01:58:08.269Z,15.22
2018-09-30T01:58:39.422Z,15.20
2018-09-30T01:59:10.525Z,15.17
2018-09-30T01:59:41.628Z,15.12
2018-09-30T02:00:12.738Z,15.05
2018-09-30T02:00:43.898Z,15.02
2018-09-30T02:01:15.039Z,14.98
2018-09-30T02:01:46.163Z,14.95
2018-09-30T02:02:17.302Z,14.93
2018-09-30T02:02:48.420Z,14.90
2018-09-30T02:03:19.526Z,14.89
2018-09-30T02:03:50.638Z,14.85
2018-09-30T02:04:21.755Z,14.82
2018-09-30T02:04:52.883Z,14.80
2018-09-30T02:05:23.983Z,14.78
2018-09-30T02:05:55.145Z,14.78
2018-09-30T02:06:26.258Z,14.80
2018-09-30T02:06:57.362Z,14.80
2018-09-30T02:07:28.478Z,14.78
2018-09-30T02:07:59.588Z,14.76
2018-09-30T02:08:30.699Z,14.73
2018-09-30T02:09:01.844Z,14.74
2018-09-30T02:09:32.944Z,14.72
2018-09-30T02:10:04.037Z,14.70
2018-09-30T02:10:35.164Z,14.68
2018-09-30T02:11:06.282Z,14.66
2018-09-30T02:11:37.398Z,14.64
2018-09-30T02:12:08.505Z,14.63
2018-09-30T02:12:39.632Z,14.62
2018-09-30T02:13:10.733Z,14.59
2018-09-30T02:13:41.855Z,14.57
2018-09-30T02:14:13.011Z,14.56
2018-09-30T02:14:44.110Z,14.54
2018-09-30T02:15:15.265Z,14.51
2018-09-30T02:15:46.376Z,14.49
2018-09-30T02:16:17.521Z,14.46
2018-09-30T02:16:48.649Z,14.43
2018-09-30T02:17:19.764Z,14.46
2018-09-30T02:17:50.858Z,14.44
2018-09-30T02:18:22.007Z,14.42
2018-09-30T02:18:53.122Z,14.41
2018-09-30T02:19:24.238Z,14.41
2018-09-30T02:19:55.358Z,14.41
2018-09-30T02:20:26.481Z,14.41
2018-09-30T02:20:57.617Z,14.41
2018-09-30T02:21:28.721Z,14.41
2018-09-30T02:21:59.826Z,14.32
2018-09-30T02:22:30.931Z,14.35
2018-09-30T02:23:02.029Z,14.36
2018-09-30T02:23:33.178Z,14.36
2018-09-30T02:24:04.286Z,14.37
2018-09-30T02:24:35.406Z,14.35
2018-09-30T02:25:06.530Z,14.35
2018-09-30T02:25:37.673Z,14.31
2018-09-30T02:26:08.791Z,14.31
2018-09-30T02:26:39.933Z,14.29
2018-09-30T02:27:11.082Z,14.26
2018-09-30T02:27:42.191Z,14.28
2018-09-30T02:28:13.289Z,14.32
2018-09-30T02:28:44.394Z,14.35
2018-09-30T02:29:15.493Z,14.36
2018-09-30T02:29:46.617Z,14.41
2018-09-30T02:30:17.750Z,14.42
2018-09-30T02:30:48.875Z,14.44
2018-09-30T02:31:20.027Z,14.46
2018-09-30T02:31:51.134Z,14.46
2018-09-30T02:32:22.316Z,14.50
2018-09-30T02:32:53.447Z,14.52
2018-09-30T02:33:24.564Z,14.55
2018-09-30T02:33:55.670Z,14.61
2018-09-30T02:34:26.785Z,14.62
2018-09-30T02:34:57.898Z,14.62
2018-09-30T02:35:29.016Z,14.65
2018-09-30T02:36:00.131Z,14.64
2018-09-30T02:36:31.288Z,14.63
2018-09-30T02:37:02.397Z,14.63
2018-09-30T02:37:33.542Z,14.61
2018-09-30T02:38:04.655Z,14.61
2018-09-30T02:38:35.768Z,14.61
2018-09-30T02:39:06.867Z,14.61
2018-09-30T02:39:37.971Z,14.59
2018-09-30T02:40:09.080Z,14.54
2018-09-30T02:40:40.192Z,14.51
2018-09-30T02:41:11.300Z,14.49
2018-09-30T02:41:42.563Z,14.45
2018-09-30T02:42:13.677Z,14.49
2018-09-30T02:42:44.785Z,14.57
2018-09-30T02:43:15.890Z,14.61
2018-09-30T02:43:47.052Z,14.63
2018-09-30T02:44:18.159Z,14.63
2018-09-30T02:44:49.260Z,14.62
2018-09-30T02:45:20.373Z,14.58
2018-09-30T02:45:51.489Z,14.57
2018-09-30T02:46:22.638Z,14.57
2018-09-30T02:46:53.786Z,14.54
2018-09-30T02:47:24.895Z,14.56
2018-09-30T02:47:56.004Z,14.56
2018-09-30T02:48:27.123Z,14.62
2018-09-30T02:48:58.246Z,14.64
2018-09-30T02:49:29.346Z,14.70
2018-09-30T02:50:00.450Z,14.72
2018-09-30T02:50:31.560Z,14.71
2018-09-30T02:51:02.697Z,14.67
2018-09-30T02:51:33.835Z,14.64
2018-09-30T02:52:04.990Z,14.65
2018-09-30T02:52:36.096Z,14.64
2018-09-30T02:53:07.200Z,14.60
2018-09-30T02:53:38.300Z,14.57
2018-09-30T02:54:09.426Z,14.58
2018-09-30T02:54:40.517Z,14.59
2018-09-30T02:55:11.663Z,14.55
2018-09-30T02:55:42.774Z,14.50
2018-09-30T02:56:13.910Z,14.48
2018-09-30T02:56:45.033Z,14.45
2018-09-30T02:57:16.154Z,14.43
2018-09-30T02:57:47.318Z,14.40
2018-09-30T02:58:18.427Z,14.38
2018-09-30T02:58:49.553Z,14.31
2018-09-30T02:59:20.662Z,14.28
2018-09-30T02:59:51.767Z,14.25
2018-09-30T03:00:22.859Z,14.24
2018-09-30T03:00:53.998Z,14.23
2018-09-30T03:01:25.127Z,14.22
2018-09-30T03:01:56.265Z,14.19
2018-09-30T03:02:27.365Z,14.17
2018-09-30T03:02:58.472Z,14.19
2018-09-30T03:03:29.591Z,14.19
2018-09-30T03:04:00.746Z,14.20
2018-09-30T03:04:31.860Z,14.20
2018-09-30T03:05:02.987Z,14.20
2018-09-30T03:05:34.135Z,14.20
2018-09-30T03:06:05.275Z,14.22
2018-09-30T03:06:36.388Z,14.22
2018-09-30T03:07:07.510Z,14.21
2018-09-30T03:07:38.622Z,14.19
2018-09-30T03:08:09.730Z,14.16
2018-09-30T03:08:40.889Z,14.15
2018-09-30T03:09:11.985Z,14.16
2018-09-30T03:09:43.104Z,14.11
2018-09-30T03:10:14.242Z,14.16
2018-09-30T03:10:45.349Z,14.15
2018-09-30T03:11:16.457Z,14.15
2018-09-30T03:11:47.572Z,14.13
2018-09-30T03:12:18.678Z,14.14
2018-09-30T03:12:49.799Z,14.11
2018-09-30T03:13:20.895Z,14.12
2018-09-30T03:13:52.035Z,14.12
2018-09-30T03:14:23.145Z,14.11
2018-09-30T03:14:54.264Z,14.10
2018-09-30T03:15:25.428Z,14.08
2018-09-30T03:15:56.536Z,14.08
2018-09-30T03:16:27.657Z,14.08
2018-09-30T03:16:58.792Z,14.10
2018-09-30T03:17:29.895Z,14.11
2018-09-30T03:18:01.091Z,14.10
2018-09-30T03:18:32.207Z,14.07
2018-09-30T03:19:03.380Z,13.99
2018-09-30T03:19:34.541Z,14.01
2018-09-30T03:20:05.653Z,14.00
2018-09-30T03:20:36.757Z,14.00
2018-09-30T03:21:07.897Z,13.99
2018-09-30T03:21:39.038Z,14.00
2018-09-30T03:22:10.174Z,14.02
2018-09-30T03:22:41.282Z,14.03
2018-09-30T03:23:12.378Z,14.01
2018-09-30T03:23:43.487Z,14.00
2018-09-30T03:24:14.615Z,13.98
2018-09-30T03:24:45.722Z,13.97
2018-09-30T03:25:16.825Z,14.00
2018-09-30T03:25:47.920Z,13.99
2018-09-30T03:26:19.018Z,13.97
2018-09-30T03:26:50.117Z,13.96
2018-09-30T03:27:21.224Z,13.91
2018-09-30T03:27:52.321Z,13.93
2018-09-30T03:28:23.422Z,13.92
2018-09-30T03:28:54.526Z,13.91
2018-09-30T03:29:25.679Z,13.90
2018-09-30T03:29:56.823Z,13.93
2018-09-30T03:30:27.930Z,13.95
2018-09-30T03:30:59.046Z,13.93
2018-09-30T03:31:30.163Z,13.93
2018-09-30T03:32:01.281Z,13.95
2018-09-30T03:32:32.418Z,13.95
2018-09-30T03:33:03.543Z,13.95
2018-09-30T03:33:34.659Z,13.92
2018-09-30T03:34:05.801Z,13.91
2018-09-30T03:34:36.937Z,13.92
2018-09-30T03:35:08.033Z,13.89
2018-09-30T03:35:39.188Z,13.87
2018-09-30T03:36:10.296Z,13.87
2018-09-30T03:36:41.429Z,13.87
2018-09-30T03:37:12.535Z,13.86
2018-09-30T03:37:43.638Z,13.83
2018-09-30T03:38:14.791Z,13.86
2018-09-30T03:38:45.917Z,13.87
2018-09-30T03:39:17.022Z,13.86
2018-09-30T03:39:48.121Z,13.88
2018-09-30T03:40:19.222Z,13.91
2018-09-30T03:40:50.326Z,13.94
2018-09-30T03:41:21.426Z,13.92
2018-09-30T03:41:52.602Z,13.93
2018-09-30T03:42:23.737Z,13.93
2018-09-30T03:42:54.840Z,13.93
2018-09-30T03:43:26.017Z,13.94
2018-09-30T03:43:57.132Z,13.91
2018-09-30T03:44:28.245Z,13.94
2018-09-30T03:44:59.346Z,13.95
2018-09-30T03:45:30.442Z,13.94
2018-09-30T03:46:01.570Z,13.93
2018-09-30T03:46:32.674Z,13.92
2018-09-30T03:47:03.773Z,13.91
2018-09-30T03:47:34.894Z,13.91
2018-09-30T03:48:05.989Z,13.91
2018-09-30T03:48:37.134Z,13.89
2018-09-30T03:49:08.254Z,13.92
2018-09-30T03:49:39.383Z,13.91
2018-09-30T03:50:10.500Z,13.92
2018-09-30T03:50:41.639Z,13.93
2018-09-30T03:51:12.790Z,13.92
2018-09-30T03:51:43.906Z,13.92
2018-09-30T03:52:15.055Z,13.92
2018-09-30T03:52:46.180Z,13.93
2018-09-30T03:53:17.295Z,13.92
2018-09-30T03:53:48.431Z,13.91
2018-09-30T03:54:19.536Z,13.90
2018-09-30T03:54:50.652Z,13.90
2018-09-30T03:55:21.797Z,13.91
2018-09-30T03:55:52.989Z,13.91
2018-09-30T03:56:24.133Z,13.90
2018-09-30T03:56:55.241Z,13.90
2018-09-30T03:57:26.342Z,13.88
2018-09-30T03:57:57.441Z,13.87
2018-09-30T03:58:28.570Z,13.84
2018-09-30T03:58:59.726Z,13.84
2018-09-30T03:59:30.855Z,13.84
2018-09-30T04:00:01.961Z,13.82
2018-09-30T04:00:33.079Z,13.84
2018-09-30T04:01:04.255Z,13.84
2018-09-30T04:01:35.370Z,13.85
2018-09-30T04:02:06.530Z,13.85
2018-09-30T04:02:37.674Z,13.86
2018-09-30T04:03:08.794Z,13.85
2018-09-30T04:03:39.894Z,13.85
2018-09-30T04:04:11.049Z,13.87
2018-09-30T04:04:42.185Z,13.87
2018-09-30T04:05:13.312Z,13.88
2018-09-30T04:05:44.467Z,13.87
2018-09-30T04:06:15.623Z,13.85
2018-09-30T04:06:46.777Z,13.86
2018-09-30T04:07:17.901Z,13.86
2018-09-30T04:07:49.017Z,13.88
2018-09-30T04:08:20.123Z,13.89
2018-09-30T04:08:51.232Z,13.87
2018-09-30T04:09:22.387Z,13.88
2018-09-30T04:09:53.565Z,13.89
2018-09-30T04:10:24.649Z,13.88
2018-09-30T04:10:55.783Z,13.89
2018-09-30T04:11:26.963Z,13.90
2018-09-30T04:11:58.068Z,13.89
2018-09-30T04:12:29.178Z,13.87
2018-09-30T04:13:00.290Z,13.86
2018-09-30T04:13:31.390Z,13.86
2018-09-30T04:14:02.515Z,13.85
2018-09-30T04:14:33.644Z,13.84
2018-09-30T04:15:04.778Z,13.84
2018-09-30T04:15:35.896Z,13.86
2018-09-30T04:16:07.002Z,13.88
2018-09-30T04:16:38.182Z,13.88
2018-09-30T04:17:09.371Z,13.89
2018-09-30T04:17:40.429Z,13.87
2018-09-30T04:18:11.586Z,13.89
2018-09-30T04:18:42.755Z,13.91
2018-09-30T04:19:13.885Z,13.91
2018-09-30T04:19:44.999Z,13.89
2018-09-30T04:20:16.121Z,13.89
2018-09-30T04:20:47.228Z,13.90
2018-09-30T04:21:18.333Z,13.91
2018-09-30T04:21:49.516Z,13.89
2018-09-30T04:22:20.615Z,13.90
2018-09-30T04:22:51.726Z,13.91
2018-09-30T04:23:22.828Z,13.89
2018-09-30T04:23:53.982Z,13.91
2018-09-30T04:24:25.117Z,13.90
2018-09-30T04:24:56.248Z,13.90
2018-09-30T04:25:27.382Z,13.90
2018-09-30T04:25:58.484Z,13.91
2018-09-30T04:26:29.616Z,13.93
2018-09-30T04:27:00.774Z,13.95
2018-09-30T04:27:31.928Z,13.92
2018-09-30T04:28:03.069Z,13.89
2018-09-30T04:28:34.203Z,13.90
2018-09-30T04:29:05.312Z,13.91
2018-09-30T04:29:36.425Z,13.93
2018-09-30T04:30:07.526Z,13.92
2018-09-30T04:30:38.639Z,13.91
2018-09-30T04:31:09.782Z,13.93
2018-09-30T04:31:40.889Z,13.92
2018-09-30T04:32:12.036Z,13.90
2018-09-30T04:32:43.143Z,13.87
2018-09-30T04:33:14.271Z,13.86
2018-09-30T04:33:45.380Z,13.85
2018-09-30T04:34:16.527Z,13.84
2018-09-30T04:34:47.640Z,13.87
2018-09-30T04:35:18.785Z,13.88
2018-09-30T04:35:49.925Z,13.88
2018-09-30T04:36:21.071Z,13.88
2018-09-30T04:36:52.196Z,13.88
2018-09-30T04:37:23.350Z,13.89
2018-09-30T04:37:54.498Z,13.87
2018-09-30T04:38:25.622Z,13.84
2018-09-30T04:38:56.756Z,13.83
2018-09-30T04:39:27.875Z,13.82
2018-09-30T04:39:58.983Z,13.81
2018-09-30T04:40:30.088Z,13.81
2018-09-30T04:41:01.182Z,13.80
2018-09-30T04:41:32.370Z,13.76
2018-09-30T04:42:03.462Z,13.79
2018-09-30T04:42:34.579Z,13.79
2018-09-30T04:43:05.765Z,13.78
2018-09-30T04:43:36.894Z,13.83
2018-09-30T04:44:07.992Z,13.83
2018-09-30T04:44:39.121Z,13.83
2018-09-30T04:45:10.238Z,13.82
2018-09-30T04:45:41.346Z,13.80
2018-09-30T04:46:12.450Z,13.76
2018-09-30T04:46:43.605Z,13.77
2018-09-30T04:47:14.737Z,13.76
2018-09-30T04:47:45.874Z,13.78
2018-09-30T04:48:16.977Z,13.81
2018-09-30T04:48:48.086Z,13.83
2018-09-30T04:49:19.234Z,13.82
2018-09-30T04:49:50.386Z,13.82
2018-09-30T04:50:21.486Z,13.83
2018-09-30T04:50:52.611Z,13.82
2018-09-30T04:51:23.756Z,13.82
2018-09-30T04:51:54.857Z,13.84
2018-09-30T04:52:25.962Z,13.84
2018-09-30T04:52:57.063Z,13.87
2018-09-30T04:53:28.206Z,13.88
2018-09-30T04:53:59.312Z,13.89
2018-09-30T04:54:30.441Z,13.90
2018-09-30T04:55:01.541Z,13.92
2018-09-30T04:55:32.641Z,13.92
2018-09-30T04:56:03.753Z,13.97
2018-09-30T04:56:34.875Z,13.99
2018-09-30T04:57:06.025Z,13.99
2018-09-30T04:57:37.178Z,14.01
2018-09-30T04:58:08.287Z,14.02
2018-09-30T04:58:39.445Z,13.99
2018-09-30T04:59:10.551Z,13.99
2018-09-30T04:59:41.652Z,13.98
2018-09-30T05:00:12.742Z,13.97
2018-09-30T05:00:43.842Z,13.96
2018-09-30T05:01:14.941Z,13.95
2018-09-30T05:01:46.043Z,13.97
2018-09-30T05:02:17.144Z,14.00
2018-09-30T05:02:48.275Z,13.99
2018-09-30T05:03:19.373Z,13.99
2018-09-30T05:03:50.545Z,14.02
2018-09-30T05:04:21.667Z,14.05
2018-09-30T05:04:52.816Z,14.06
2018-09-30T05:05:23.949Z,14.07
2018-09-30T05:05:55.075Z,14.04
2018-09-30T05:06:26.193Z,14.03
2018-09-30T05:06:57.298Z,14.02
2018-09-30T05:07:28.426Z,14.02
2018-09-30T05:07:59.547Z,14.03
2018-09-30T05:08:30.726Z,14.06
2018-09-30T05:09:01.887Z,14.09
2018-09-30T05:09:33.036Z,14.12
2018-09-30T05:10:04.179Z,14.15
2018-09-30T05:10:35.312Z,14.15
2018-09-30T05:11:06.471Z,14.17
2018-09-30T05:11:37.582Z,14.20
2018-09-30T05:12:08.686Z,14.22
2018-09-30T05:12:39.810Z,14.22
2018-09-30T05:13:10.908Z,14.26
2018-09-30T05:13:42.064Z,14.27
2018-09-30T05:14:13.194Z,14.26
2018-09-30T05:14:44.335Z,14.25
2018-09-30T05:15:15.434Z,14.24
2018-09-30T05:15:46.531Z,14.22
2018-09-30T05:16:17.697Z,14.20
2018-09-30T05:16:48.817Z,14.20
2018-09-30T05:17:19.947Z,14.18
2018-09-30T05:17:51.083Z,14.18
2018-09-30T05:18:22.186Z,14.20
2018-09-30T05:18:53.322Z,14.22
2018-09-30T05:19:24.449Z,14.22
2018-09-30T05:19:55.566Z,14.20
2018-09-30T05:20:26.697Z,14.19
2018-09-30T05:20:57.827Z,14.22
2018-09-30T05:21:28.946Z,14.23
2018-09-30T05:22:00.836Z,14.24
2018-09-30T05:22:31.946Z,14.25
2018-09-30T05:23:03.056Z,14.26
2018-09-30T05:23:34.176Z,14.25
2018-09-30T05:24:05.324Z,14.26
2018-09-30T05:24:36.422Z,14.24
2018-09-30T05:25:07.529Z,14.25
2018-09-30T05:25:38.679Z,14.24
2018-09-30T05:26:09.809Z,14.25
2018-09-30T05:26:40.936Z,14.24
2018-09-30T05:27:12.067Z,14.23
2018-09-30T05:27:43.185Z,14.25
2018-09-30T05:28:14.302Z,14.24
2018-09-30T05:28:45.415Z,14.22
2018-09-30T05:29:16.550Z,14.22
2018-09-30T05:29:47.699Z,14.20
2018-09-30T05:30:18.839Z,14.21
2018-09-30T05:30:50.003Z,14.21
2018-09-30T05:31:21.181Z,14.22
2018-09-30T05:31:52.221Z,14.22
2018-09-30T05:32:23.356Z,14.22
2018-09-30T05:32:54.486Z,14.22
2018-09-30T05:33:25.684Z,14.21
2018-09-30T05:33:56.814Z,14.21
2018-09-30T05:34:27.941Z,14.19
2018-09-30T05:34:59.190Z,14.20
2018-09-30T05:35:30.351Z,14.19
2018-09-30T05:36:01.474Z,14.22
2018-09-30T05:36:32.635Z,14.23
2018-09-30T05:37:03.789Z,14.24
2018-09-30T05:37:34.881Z,14.26
2018-09-30T05:38:05.999Z,14.27
2018-09-30T05:38:37.105Z,14.25
2018-09-30T05:39:08.201Z,14.25
2018-09-30T05:39:39.413Z,14.25
2018-09-30T05:40:10.601Z,14.24
2018-09-30T05:40:41.761Z,14.24
2018-09-30T05:41:12.881Z,14.23
2018-09-30T05:41:44.036Z,14.23
2018-09-30T05:42:15.155Z,14.22
2018-09-30T05:42:46.258Z,14.21
2018-09-30T05:43:17.377Z,14.21
2018-09-30T05:43:48.492Z,14.23
2018-09-30T05:44:19.619Z,14.25
2018-09-30T05:44:50.773Z,14.25
2018-09-30T05:45:21.894Z,14.25
2018-09-30T05:45:53.073Z,14.27
2018-09-30T05:46:24.188Z,14.25
2018-09-30T05:46:55.351Z,14.22
2018-09-30T05:47:26.510Z,14.20
2018-09-30T05:47:57.639Z,14.19
2018-09-30T05:48:28.752Z,12.79
2018-09-30T05:48:59.885Z,14.15
2018-09-30T05:49:31.012Z,14.14
2018-09-30T05:50:02.156Z,14.13
2018-09-30T05:50:33.265Z,14.11
2018-09-30T05:51:04.446Z,14.11
2018-09-30T05:51:35.585Z,14.16
2018-09-30T05:52:06.730Z,14.16
2018-09-30T05:52:37.887Z,14.11
2018-09-30T05:53:08.995Z,14.11
2018-09-30T05:53:40.200Z,14.10
2018-09-30T05:54:11.297Z,14.11
2018-09-30T05:54:42.416Z,14.10
2018-09-30T05:55:13.532Z,14.10
2018-09-30T05:55:44.677Z,14.12
2018-09-30T05:56:15.817Z,14.12
2018-09-30T05:56:46.933Z,14.14
2018-09-30T05:57:18.057Z,14.14
2018-09-30T05:57:49.218Z,14.14
2018-09-30T05:58:20.345Z,14.15
2018-09-30T05:58:51.447Z,14.15
2018-09-30T05:59:22.591Z,14.14
2018-09-30T05:59:53.695Z,14.16
2018-09-30T06:00:24.814Z,14.20
2018-09-30T06:00:55.957Z,14.21
2018-09-30T06:01:27.081Z,14.22
2018-09-30T06:01:58.221Z,14.21
2018-09-30T06:02:29.349Z,14.23
2018-09-30T06:03:00.455Z,14.21
2018-09-30T06:03:31.567Z,14.21
2018-09-30T06:04:02.749Z,14.20
2018-09-30T06:04:33.868Z,14.19
2018-09-30T06:05:05.011Z,14.16
2018-09-30T06:05:36.119Z,14.17
2018-09-30T06:06:09.154Z,14.16
2018-09-30T06:06:40.273Z,14.15
2018-09-30T06:07:11.405Z,14.16
2018-09-30T06:07:42.526Z,14.19
2018-09-30T06:08:13.633Z,14.20
2018-09-30T06:08:44.783Z,14.21
2018-09-30T06:09:15.952Z,14.23
2018-09-30T06:09:47.037Z,14.22
2018-09-30T06:10:18.241Z,14.20
2018-09-30T06:10:49.359Z,14.19
2018-09-30T06:11:20.453Z,14.18
2018-09-30T06:11:51.599Z,14.16
2018-09-30T06:12:22.722Z,14.16
2018-09-30T06:12:53.848Z,14.15
2018-09-30T06:13:24.945Z,14.13
2018-09-30T06:13:56.172Z,14.15
2018-09-30T06:14:27.269Z,14.17
2018-09-30T06:14:58.423Z,14.19
2018-09-30T06:15:29.541Z,14.23
2018-09-30T06:16:00.812Z,14.26
2018-09-30T06:16:31.887Z,14.27
2018-09-30T06:17:03.072Z,14.31
2018-09-30T06:17:34.188Z,14.31
2018-09-30T06:18:05.299Z,14.30
2018-09-30T06:18:36.404Z,14.32
2018-09-30T06:19:07.562Z,14.38
2018-09-30T06:19:38.666Z,14.39
2018-09-30T06:20:09.797Z,14.42
2018-09-30T06:20:40.906Z,14.44
2018-09-30T06:21:12.076Z,14.46
2018-09-30T06:21:43.208Z,14.46
2018-09-30T06:22:14.390Z,14.49
2018-09-30T06:22:45.498Z,14.53
2018-09-30T06:23:16.593Z,14.54
2018-09-30T06:23:47.706Z,14.46
2018-09-30T06:24:18.856Z,14.47
2018-09-30T06:24:49.996Z,14.48
2018-09-30T06:25:21.118Z,14.48
2018-09-30T06:25:52.283Z,14.48
2018-09-30T06:26:23.394Z,14.49
2018-09-30T06:26:54.529Z,14.50
2018-09-30T06:27:25.633Z,14.51
2018-09-30T06:27:56.737Z,14.49
2018-09-30T06:28:27.836Z,14.49
2018-09-30T06:28:58.960Z,14.49
2018-09-30T06:29:30.108Z,14.51
2018-09-30T06:30:01.254Z,14.53
2018-09-30T06:30:32.361Z,14.59
2018-09-30T06:31:03.529Z,14.62
2018-09-30T06:31:34.711Z,14.63
2018-09-30T06:32:05.843Z,14.64
2018-09-30T06:32:36.941Z,14.62
2018-09-30T06:33:08.068Z,14.63
2018-09-30T06:33:39.218Z,14.63
2018-09-30T06:34:10.396Z,14.63
2018-09-30T06:34:42.152Z,14.64
2018-09-30T06:35:13.269Z,14.63
2018-09-30T06:35:44.371Z,14.67
2018-09-30T06:36:15.532Z,14.68
2018-09-30T06:36:46.650Z,14.69
2018-09-30T06:37:17.819Z,14.70
2018-09-30T06:37:48.908Z,14.71
2018-09-30T06:38:20.047Z,14.73
2018-09-30T06:38:51.202Z,14.74
2018-09-30T06:39:22.351Z,14.73
2018-09-30T06:39:53.461Z,14.72
2018-09-30T06:40:24.676Z,14.70
2018-09-30T06:40:55.789Z,14.67
2018-09-30T06:41:26.947Z,14.67